Agency, Iowa
Current Conditions -  °F | °C
As of 8:53 PM on Monday 22 Dec 2014 (Local Time) from KOTM Reporting Station
Light Rain Light Rain  
Wind Chill: 35°   Ceiling: 300
Heat Index: 40°   Visibility: 5mi
Dew Point: 40°   Wind: 7mph
Humidity: 100%   Direction: 110°ESE
Pressure: 29.45"   Gusts: NA
Location:  41°N, 92.31°W
Report Text: KOTM 230253Z AUTO 11006KT 5SM -RA BR OVC003 04/04 A2945 RMK AO2 SLP977 P0007 60017 T00440044 58007
Loading
Personal Weather Stations






























Interactive Weather Map New forecast layout! Learn more

10-Day Weather Forecast

Advertisements
Track Severe Weather on mobile